createdAt,value
2023-04-20T00:03:34.761Z,4.1
2023-04-20T00:18:44.850Z,4.4
2023-04-20T00:33:54.668Z,4.9
2023-04-20T00:49:05.098Z,4.2
2023-04-20T01:04:14.761Z,4.4
2023-04-20T01:19:24.854Z,5
2023-04-20T01:34:34.573Z,3.7
2023-04-20T01:49:43.998Z,3.3
2023-04-20T02:04:53.606Z,4.3
2023-04-20T02:20:05.342Z,5.1
2023-04-20T02:35:14.807Z,4.5
2023-04-20T02:50:24.254Z,5.1
2023-04-20T03:05:33.768Z,5.1
2023-04-20T03:20:43.387Z,5.5
2023-04-20T03:35:53.263Z,5
2023-04-20T03:51:03.523Z,4.9
2023-04-20T04:06:12.974Z,5
2023-04-20T04:21:22.772Z,5.8
2023-04-20T04:36:32.222Z,4.9
2023-04-20T04:51:42.887Z,5.1
2023-04-20T05:06:52.950Z,5.1
2023-04-20T05:22:02.419Z,5
2023-04-20T05:37:12.288Z,5
2023-04-20T05:52:22.206Z,5.6
2023-04-20T06:07:31.881Z,5.5
2023-04-20T06:22:41.970Z,8.8
2023-04-20T06:37:52.420Z,5.9
2023-04-20T06:53:05.615Z,7.1
2023-04-20T07:08:17.641Z,7.1
2023-04-20T07:23:28.167Z,7.8
2023-04-20T07:38:38.293Z,7.1
2023-04-20T07:53:47.855Z,8.2
2023-04-20T08:08:58.699Z,6.9
2023-04-20T08:24:08.395Z,8.1
2023-04-20T08:39:18.694Z,7.8
2023-04-20T08:54:28.479Z,7.4
2023-04-20T09:09:38.808Z,7.1
2023-04-20T09:24:49.377Z,6.2
2023-04-20T09:39:59.190Z,6.2
2023-04-20T09:55:08.603Z,6.4
2023-04-20T10:10:18.683Z,4.7
2023-04-20T10:25:28.892Z,5.3
2023-04-20T10:40:39.221Z,6.2
2023-04-20T10:55:49.624Z,6
2023-04-20T11:10:59.925Z,5.8
2023-04-20T11:26:14.256Z,6.2
2023-04-20T11:41:24.178Z,5.1
2023-04-20T11:56:34.854Z,6.2
2023-04-20T12:11:44.816Z,7.6
2023-04-20T12:26:54.736Z,5.1
2023-04-20T12:42:05.147Z,6.8
2023-04-20T12:57:15.776Z,5
2023-04-20T13:12:25.710Z,5.9
2023-04-20T13:27:35.794Z,6.3
2023-04-20T13:42:46.279Z,5.6
2023-04-20T13:57:55.703Z,6.3
2023-04-20T14:13:05.222Z,8.9
2023-04-20T14:28:14.726Z,8.5
2023-04-20T14:43:24.106Z,8
2023-04-20T14:58:33.485Z,9.8
2023-04-20T15:13:42.902Z,9.6
2023-04-20T15:28:52.914Z,7.9
2023-04-20T15:44:03.411Z,7.3
2023-04-20T15:59:12.696Z,9.3
2023-04-20T16:14:22.222Z,10.3
2023-04-20T16:29:31.600Z,11
2023-04-20T16:44:42.120Z,12.4
2023-04-20T16:59:51.929Z,10
2023-04-20T17:15:05.230Z,9.5
2023-04-20T17:30:14.850Z,10.5
2023-04-20T17:45:24.135Z,10
2023-04-20T18:00:33.683Z,9.7
2023-04-20T18:15:43.982Z,9.8
2023-04-20T18:30:53.452Z,9.9
2023-04-20T18:46:05.934Z,10.3
2023-04-20T19:01:16.174Z,11.4
2023-04-20T19:16:26.640Z,10.5
2023-04-20T19:31:36.663Z,11.7
2023-04-20T19:46:46.756Z,11.7
2023-04-20T20:01:57.129Z,12.7
2023-04-20T20:17:07.611Z,12.4
2023-04-20T20:32:17.447Z,14
2023-04-20T20:47:27.215Z,12
2023-04-20T21:02:38.121Z,12.6
2023-04-20T21:17:48.498Z,12.6
2023-04-20T21:32:58.381Z,12.3
2023-04-20T21:48:08.283Z,12.4
2023-04-20T22:03:17.973Z,12.6
2023-04-20T22:18:28.630Z,13
2023-04-20T22:33:38.374Z,13.3
2023-04-20T22:48:48.940Z,13.7
2023-04-20T23:03:59.420Z,14.5
2023-04-20T23:19:09.773Z,14
2023-04-20T23:34:19.522Z,14.2
2023-04-20T23:49:30.579Z,14.7
